Time;durP1;ratioP1;P1;durP2;ratioP2;P2;SDS_P1;SDS_P2;PMS_P1;PMS_P2;Temp;Humidity;BMP_temperature;BMP_pressure;BME280_temperature;BME280_humidity;BME280_pressure;Samples;Min_cycle;Max_cycle;Signal;HPM_P1;HPM_P2
2021/07/16 00:02:10;;;;;;;3.00;2.72;;;16.00;99.90;;;;;;5093109;28;20363;-76
2021/07/16 00:04:36;;;;;;;3.00;2.63;;;16.00;99.90;;;;;;5093273;28;20024;-76
2021/07/16 00:07:01;;;;;;;3.35;2.70;;;15.90;99.90;;;;;;5092979;28;20031;-77
2021/07/16 00:09:27;;;;;;;3.63;3.38;;;15.80;99.90;;;;;;5092909;28;20111;-74
2021/07/16 00:11:52;;;;;;;3.65;3.35;;;15.80;99.90;;;;;;5092716;28;20028;-76
2021/07/16 00:14:18;;;;;;;3.90;2.88;;;15.80;99.90;;;;;;5092812;28;20070;-76
2021/07/16 00:16:44;;;;;;;3.58;2.88;;;15.80;99.90;;;;;;5074621;28;20465;-76
2021/07/16 00:19:09;;;;;;;5.38;3.33;;;15.80;99.90;;;;;;5092759;28;20459;-76
2021/07/16 00:21:35;;;;;;;3.42;3.17;;;15.70;99.90;;;;;;5092353;28;20028;-76
2021/07/16 00:24:01;;;;;;;3.30;3.03;;;15.70;99.90;;;;;;5074543;28;20027;-76
2021/07/16 00:26:28;;;;;;;4.75;3.47;;;15.70;99.90;;;;;;5092654;28;20536;-75
2021/07/16 00:28:53;;;;;;;4.50;3.72;;;15.70;99.90;;;;;;5092426;28;20480;-76
2021/07/16 00:31:19;;;;;;;4.93;3.92;;;15.70;99.90;;;;;;5092402;28;20020;-76
2021/07/16 00:33:45;;;;;;;3.22;2.92;;;15.70;99.90;;;;;;5058084;28;20293;-77
2021/07/16 00:36:10;;;;;;;3.20;3.00;;;15.70;99.90;;;;;;5092387;28;20027;-75
2021/07/16 00:38:36;;;;;;;5.05;3.67;;;15.60;99.90;;;;;;5092496;28;20027;-76
2021/07/16 00:41:03;;;;;;;3.75;3.15;;;15.70;99.90;;;;;;5074144;28;20032;-76
2021/07/16 00:43:28;;;;;;;3.75;3.45;;;15.70;99.90;;;;;;5092393;28;20026;-76
2021/07/16 00:45:54;;;;;;;5.03;3.63;;;15.60;99.90;;;;;;5074144;28;20123;-75
2021/07/16 00:48:20;;;;;;;4.68;3.47;;;15.70;99.90;;;;;;5074030;28;20028;-75
2021/07/16 00:50:48;;;;;;;3.65;3.08;;;15.70;99.90;;;;;;5092179;28;20103;-76
2021/07/16 00:53:17;;;;;;;3.97;3.58;;;15.70;99.90;;;;;;5092451;28;20646;-76
2021/07/16 00:55:43;;;;;;;9.85;3.65;;;15.70;99.90;;;;;;5073806;28;20028;-76
2021/07/16 00:58:09;;;;;;;4.55;4.15;;;15.70;99.90;;;;;;5074140;28;20649;-75
2021/07/16 01:00:36;;;;;;;4.10;3.80;;;15.60;99.90;;;;;;5092369;28;20028;-75
2021/07/16 01:03:01;;;;;;;5.18;3.50;;;15.60;99.90;;;;;;5073879;28;20512;-76
2021/07/16 01:05:27;;;;;;;4.05;3.65;;;15.70;99.90;;;;;;5091969;28;20036;-76
2021/07/16 01:07:54;;;;;;;3.97;3.60;;;15.70;99.90;;;;;;5057151;28;20020;-75
2021/07/16 01:10:21;;;;;;;4.25;3.85;;;15.70;99.90;;;;;;5091772;28;20032;-76
2021/07/16 01:12:51;;;;;;;3.92;3.63;;;15.70;99.90;;;;;;5092083;28;20056;-76
2021/07/16 01:15:18;;;;;;;4.32;4.03;;;15.60;99.90;;;;;;5091869;28;20012;-76
2021/07/16 01:17:43;;;;;;;4.22;3.83;;;15.60;99.90;;;;;;5074031;28;20027;-76
2021/07/16 01:20:12;;;;;;;3.70;3.38;;;15.60;99.90;;;;;;5073600;28;20017;-76
2021/07/16 01:22:41;;;;;;;3.65;3.35;;;15.70;99.90;;;;;;5091949;28;20080;-75
2021/07/16 01:25:09;;;;;;;3.75;3.45;;;15.70;99.90;;;;;;5091535;28;20024;-76
2021/07/16 01:27:35;;;;;;;3.47;3.17;;;15.70;99.90;;;;;;5091526;28;20024;-75
2021/07/16 01:30:04;;;;;;;4.18;3.88;;;15.70;99.90;;;;;;5073475;28;20035;-76
2021/07/16 01:32:30;;;;;;;3.38;3.08;;;15.70;99.90;;;;;;5091602;28;20023;-76
2021/07/16 01:34:56;;;;;;;3.42;2.88;;;15.70;99.90;;;;;;5094941;28;20031;-76
2021/07/16 01:37:22;;;;;;;3.33;3.03;;;15.70;99.90;;;;;;5077585;28;20020;-76
2021/07/16 01:39:47;;;;;;;4.07;2.70;;;15.70;99.90;;;;;;5095821;28;20032;-75
2021/07/16 01:42:13;;;;;;;3.65;3.35;;;15.70;99.90;;;;;;5095780;28;20020;-76
2021/07/16 01:44:42;;;;;;;3.42;3.17;;;15.70;99.90;;;;;;5095803;28;20491;-75
2021/07/16 01:47:09;;;;;;;2.97;2.78;;;15.70;99.90;;;;;;5095712;28;20020;-76
2021/07/16 01:49:35;;;;;;;3.08;2.75;;;15.70;99.90;;;;;;5095558;28;20051;-76
2021/07/16 01:52:01;;;;;;;4.82;2.65;;;15.70;99.90;;;;;;5077271;28;20481;-76
2021/07/16 01:54:26;;;;;;;5.47;2.88;;;15.60;99.90;;;;;;5095611;28;20016;-76
2021/07/16 01:56:52;;;;;;;3.20;2.90;;;15.70;99.90;;;;;;5095444;28;20046;-75
2021/07/16 01:59:18;;;;;;;4.50;3.08;;;15.60;99.90;;;;;;5095402;28;20036;-76
2021/07/16 02:01:43;;;;;;;2.95;2.60;;;15.60;99.90;;;;;;5095575;28;20036;-75
2021/07/16 02:04:10;;;;;;;7.63;3.30;;;15.60;99.90;;;;;;5095494;28;20039;-75
2021/07/16 02:06:37;;;;;;;3.75;3.10;;;15.50;99.90;;;;;;5095190;28;20097;-76
2021/07/16 02:09:04;;;;;;;3.05;2.85;;;15.60;99.90;;;;;;5077087;28;20051;-76
2021/07/16 02:11:31;;;;;;;3.78;3.03;;;15.60;99.90;;;;;;5095274;28;20113;-75
2021/07/16 02:13:57;;;;;;;5.20;2.55;;;15.60;99.90;;;;;;5095220;28;20032;-75
2021/07/16 02:16:22;;;;;;;2.88;2.67;;;15.50;99.90;;;;;;5077152;28;20031;-76
2021/07/16 02:18:52;;;;;;;3.92;2.72;;;15.50;99.90;;;;;;5095109;28;20032;-75
2021/07/16 02:21:19;;;;;;;4.53;3.25;;;15.50;99.90;;;;;;5076536;28;20118;-76
2021/07/16 02:23:45;;;;;;;3.25;3.05;;;15.50;99.90;;;;;;5095084;28;20032;-76
2021/07/16 02:26:10;;;;;;;6.65;3.20;;;15.50;99.90;;;;;;5095414;28;20058;-77
2021/07/16 02:28:36;;;;;;;3.15;2.92;;;15.50;99.90;;;;;;5094913;28;20036;-76
2021/07/16 02:31:11;;;;;;;3.55;3.20;;;15.40;99.90;;;;;;5076886;28;20056;-76
2021/07/16 02:33:37;;;;;;;3.20;2.90;;;15.40;99.90;;;;;;5077193;28;20097;-76
2021/07/16 02:36:04;;;;;;;5.38;2.80;;;15.40;99.90;;;;;;5117138;28;20366;-76
2021/07/16 02:38:30;;;;;;;3.00;2.70;;;15.40;99.90;;;;;;5119056;28;20024;-74
2021/07/16 02:40:56;;;;;;;3.30;3.10;;;15.40;99.90;;;;;;5117427;28;20020;-76
2021/07/16 02:43:22;;;;;;;4.18;2.90;;;15.50;99.90;;;;;;5094554;28;20051;-76
2021/07/16 02:45:49;;;;;;;3.22;3.00;;;15.50;99.90;;;;;;5076275;28;20027;-76
2021/07/16 02:48:14;;;;;;;3.45;2.83;;;15.60;99.90;;;;;;5076305;28;20114;-76
2021/07/16 02:50:42;;;;;;;4.10;2.78;;;15.60;99.90;;;;;;5094397;28;20094;-76
2021/07/16 02:53:10;;;;;;;4.65;3.22;;;15.60;99.90;;;;;;5076395;28;20081;-77
2021/07/16 02:55:36;;;;;;;5.75;3.28;;;15.60;99.90;;;;;;5076215;28;20027;-75
2021/07/16 02:58:03;;;;;;;3.17;2.88;;;15.60;99.90;;;;;;5101871;28;20035;-75
2021/07/16 03:00:30;;;;;;;3.65;3.35;;;15.60;99.90;;;;;;5108208;28;20020;-76
2021/07/16 03:02:57;;;;;;;3.75;3.22;;;15.60;99.90;;;;;;5111232;28;20043;-76
2021/07/16 03:05:27;;;;;;;3.25;2.95;;;15.60;99.90;;;;;;5091601;28;20119;-75
2021/07/16 03:07:54;;;;;;;4.05;3.22;;;15.60;99.90;;;;;;5110422;28;20028;-75
2021/07/16 03:10:22;;;;;;;3.42;3.15;;;15.50;99.90;;;;;;5110642;28;20027;-76
2021/07/16 03:12:49;;;;;;;6.15;3.35;;;15.50;99.90;;;;;;5080460;28;20111;-76
2021/07/16 03:15:18;;;;;;;3.83;3.50;;;15.50;99.90;;;;;;5093920;28;20028;-75
2021/07/16 03:17:44;;;;;;;6.63;4.03;;;15.50;99.90;;;;;;5094335;28;20069;-76
2021/07/16 03:20:15;;;;;;;4.07;3.78;;;15.50;99.90;;;;;;5093981;28;20478;-76
2021/07/16 03:22:41;;;;;;;;;;;15.50;99.90;;;;;;5076228;28;20119;-76
2021/07/16 03:25:09;;;;;;;5.28;3.80;;;15.50;99.90;;;;;;5075591;28;20352;-76
2021/07/16 03:27:35;;;;;;;4.28;3.97;;;15.40;99.90;;;;;;5075772;28;20511;-76
2021/07/16 03:30:01;;;;;;;4.32;3.90;;;15.50;99.90;;;;;;5093782;28;20393;-76
2021/07/16 03:32:27;;;;;;;4.40;3.72;;;15.50;99.90;;;;;;5075248;28;20435;-75
2021/07/16 03:34:53;;;;;;;4.03;3.60;;;15.60;99.90;;;;;;5093655;28;20069;-76
2021/07/16 03:37:18;;;;;;;3.95;3.65;;;15.70;99.90;;;;;;5093656;28;20039;-76
2021/07/16 03:39:44;;;;;;;3.65;3.35;;;15.70;99.90;;;;;;5075396;28;20027;-76
2021/07/16 03:42:10;;;;;;;4.47;3.72;;;15.70;99.90;;;;;;5093441;28;20027;-76
2021/07/16 03:44:35;;;;;;;6.68;3.53;;;15.90;99.90;;;;;;5093369;28;20024;-76
2021/07/16 03:47:01;;;;;;;3.65;3.35;;;16.00;99.90;;;;;;5075049;28;20054;-76
2021/07/16 03:49:28;;;;;;;8.13;4.13;;;16.20;99.90;;;;;;5093385;28;20024;-76
2021/07/16 03:51:54;;;;;;;4.25;3.95;;;16.30;99.90;;;;;;5124924;22;20105;-73
2021/07/16 03:54:20;;;;;;;7.20;4.65;;;16.20;99.90;;;;;;5105766;28;20027;-73
2021/07/16 03:56:46;;;;;;;5.43;4.93;;;16.20;99.90;;;;;;5108060;28;20039;-73
2021/07/16 03:59:11;;;;;;;5.38;4.55;;;16.00;99.90;;;;;;5101959;28;20032;-73
2021/07/16 04:01:37;;;;;;;6.75;4.65;;;15.90;99.90;;;;;;5106819;28;20024;-73
2021/07/16 04:04:03;;;;;;;13.98;6.07;;;16.00;99.90;;;;;;5106549;28;20032;-73
2021/07/16 04:06:31;;;;;;;7.35;4.28;;;15.90;99.90;;;;;;5107851;28;20012;-73
2021/07/16 04:09:10;;;;;;;5.63;5.10;;;16.00;99.90;;;;;;5095107;28;20404;-73
2021/07/16 04:11:38;;;;;;;6.93;4.88;;;15.90;99.90;;;;;;5114092;28;20035;-73
2021/07/16 04:14:04;;;;;;;4.72;4.32;;;16.00;99.90;;;;;;5113792;28;20025;-72
2021/07/16 04:16:32;;;;;;;6.53;4.75;;;16.10;99.90;;;;;;5108224;28;20042;-74
2021/07/16 04:18:57;;;;;;;7.60;4.88;;;16.30;99.90;;;;;;5096997;28;20031;-73
2021/07/16 04:21:23;;;;;;;12.57;4.97;;;16.30;99.90;;;;;;5093040;28;20020;-73
2021/07/16 04:23:48;;;;;;;6.07;4.70;;;16.20;99.90;;;;;;5074927;28;20024;-74
2021/07/16 04:26:14;;;;;;;5.70;4.00;;;16.30;99.90;;;;;;5092699;28;20073;-73
2021/07/16 04:28:39;;;;;;;6.38;5.30;;;16.40;99.90;;;;;;5074698;28;20059;-74
2021/07/16 04:31:05;;;;;;;5.43;4.72;;;16.40;99.90;;;;;;5074693;28;20396;-74
2021/07/16 04:33:31;;;;;;;7.40;5.05;;;16.30;99.90;;;;;;5093038;28;20016;-74
2021/07/16 04:35:56;;;;;;;5.72;5.20;;;16.20;99.90;;;;;;5092591;28;20077;-73
2021/07/16 04:38:22;;;;;;;7.60;5.15;;;16.10;99.90;;;;;;5092657;28;20020;-72
2021/07/16 04:40:47;;;;;;;5.75;5.20;;;16.10;99.90;;;;;;5074313;28;20119;-72
2021/07/16 04:43:13;;;;;;;5.75;5.25;;;16.20;99.90;;;;;;5092879;28;20020;-73
2021/07/16 04:45:39;;;;;;;5.82;5.22;;;16.30;99.90;;;;;;5074276;28;20031;-73
2021/07/16 04:48:06;;;;;;;8.00;5.25;;;16.40;99.90;;;;;;5074735;28;20489;-73
2021/07/16 04:50:31;;;;;;;5.72;5.03;;;16.40;99.90;;;;;;5092644;28;20024;-73
2021/07/16 04:52:57;;;;;;;7.43;5.95;;;16.50;99.90;;;;;;5092610;28;20061;-74
2021/07/16 04:55:22;;;;;;;5.97;5.35;;;16.40;99.90;;;;;;5074800;28;20138;-73
2021/07/16 04:57:49;;;;;;;7.22;5.38;;;16.30;99.90;;;;;;5092795;28;20385;-73
2021/07/16 05:00:15;;;;;;;5.95;5.20;;;16.40;99.90;;;;;;5092614;28;20027;-73
2021/07/16 05:02:41;;;;;;;5.43;5.00;;;16.50;99.90;;;;;;5092649;28;20027;-73
2021/07/16 05:05:08;;;;;;;6.57;5.03;;;16.60;99.90;;;;;;5094510;28;20031;-73
2021/07/16 05:07:34;;;;;;;5.25;4.75;;;16.90;99.90;;;;;;5094477;28;20169;-73
2021/07/16 05:10:00;;;;;;;6.13;4.50;;;17.20;99.90;;;;;;5097263;28;20493;-73
2021/07/16 05:12:26;;;;;;;5.28;3.72;;;17.30;99.90;;;;;;5117577;28;20023;-73
2021/07/16 05:14:52;;;;;;;6.78;4.82;;;17.30;99.90;;;;;;5103638;28;20028;-73
2021/07/16 05:17:17;;;;;;;4.78;4.25;;;17.40;99.90;;;;;;5077207;28;20062;-74
2021/07/16 05:19:44;;;;;;;4.82;4.43;;;17.30;99.90;;;;;;5093716;28;20025;-73
2021/07/16 05:22:09;;;;;;;5.25;4.75;;;17.20;99.90;;;;;;5092082;28;20035;-73
2021/07/16 05:24:37;;;;;;;7.07;4.35;;;17.00;99.90;;;;;;5093106;28;20036;-74
2021/07/16 05:27:04;;;;;;;5.90;5.32;;;16.90;99.90;;;;;;5094533;28;20024;-73
2021/07/16 05:29:30;;;;;;;7.15;4.75;;;16.80;99.90;;;;;;5094380;28;20021;-72
2021/07/16 05:31:56;;;;;;;10.00;5.20;;;16.80;99.90;;;;;;5076280;28;20488;-73
2021/07/16 05:34:21;;;;;;;9.77;6.22;;;16.90;99.90;;;;;;5097004;28;20098;-73
2021/07/16 05:36:47;;;;;;;9.05;8.10;;;17.00;99.90;;;;;;5098302;28;20024;-73
2021/07/16 05:39:12;;;;;;;11.70;8.65;;;17.20;99.90;;;;;;5096970;28;20028;-73
2021/07/16 05:41:38;;;;;;;10.32;8.55;;;17.20;99.90;;;;;;5077954;28;20020;-73
2021/07/16 05:44:04;;;;;;;9.35;7.93;;;17.40;99.90;;;;;;5092146;28;20054;-73
2021/07/16 05:46:31;;;;;;;10.90;8.60;;;17.50;99.90;;;;;;5092180;28;20393;-73
2021/07/16 05:48:57;;;;;;;10.05;7.85;;;17.50;99.90;;;;;;5092700;28;20032;-73
2021/07/16 05:51:22;;;;;;;7.95;7.25;;;17.70;99.90;;;;;;5074230;28;20046;-73
2021/07/16 05:53:48;;;;;;;10.20;7.63;;;17.80;99.90;;;;;;5092911;28;20470;-72
2021/07/16 05:56:13;;;;;;;7.32;6.65;;;17.80;99.90;;;;;;5074117;28;20024;-74
2021/07/16 05:58:39;;;;;;;8.40;7.20;;;17.90;99.90;;;;;;5095648;28;20059;-73
2021/07/16 06:01:04;;;;;;;7.95;7.13;;;18.40;99.90;;;;;;5095658;28;20261;-73
2021/07/16 06:03:30;;;;;;;9.05;6.93;;;18.40;99.90;;;;;;5092237;28;20103;-73
2021/07/16 06:05:56;;;;;;;8.30;7.25;;;18.40;99.90;;;;;;5073769;28;20063;-73
2021/07/16 06:08:21;;;;;;;7.78;7.03;;;18.40;99.90;;;;;;5091779;28;20055;-73
2021/07/16 06:10:47;;;;;;;8.30;7.13;;;18.30;99.90;;;;;;5092245;28;20046;-74
2021/07/16 06:13:12;;;;;;;8.80;7.97;;;18.10;99.90;;;;;;5074295;28;20028;-73
2021/07/16 06:15:38;;;;;;;8.15;7.45;;;18.00;99.90;;;;;;5092058;28;20027;-73
2021/07/16 06:18:04;;;;;;;8.77;7.97;;;17.60;99.90;;;;;;5073927;28;20119;-73
2021/07/16 06:20:29;;;;;;;10.82;7.82;;;17.70;99.90;;;;;;5094211;28;20025;-73
2021/07/16 06:22:55;;;;;;;9.50;8.63;;;17.60;99.90;;;;;;5096130;28;20051;-73
2021/07/16 06:25:21;;;;;;;12.10;11.00;;;17.60;99.90;;;;;;5077782;28;20131;-73
2021/07/16 06:27:47;;;;;;;8.13;7.43;;;17.60;99.90;;;;;;5077869;28;20593;-72
2021/07/16 06:30:14;;;;;;;8.40;7.60;;;17.80;99.90;;;;;;5077298;28;20027;-73
2021/07/16 06:32:40;;;;;;;8.85;8.05;;;17.90;99.90;;;;;;5077347;28;20028;-72
2021/07/16 06:35:09;;;;;;;8.82;7.93;;;17.90;99.90;;;;;;5095643;28;20024;-73
2021/07/16 06:37:35;;;;;;;9.43;7.45;;;17.90;99.90;;;;;;5095380;28;20111;-74
2021/07/16 06:40:02;;;;;;;11.38;7.30;;;17.90;99.90;;;;;;5077577;28;20028;-72
2021/07/16 06:42:28;;;;;;;8.55;7.65;;;18.00;99.90;;;;;;5076914;28;20078;-72
2021/07/16 06:44:54;;;;;;;8.20;7.55;;;18.20;99.90;;;;;;5094985;28;20035;-73
2021/07/16 06:47:20;;;;;;;10.85;6.90;;;18.70;99.90;;;;;;5094861;28;20431;-73
2021/07/16 06:49:46;;;;;;;7.95;6.78;;;19.00;99.90;;;;;;5094747;28;20108;-73
2021/07/16 06:52:13;;;;;;;7.72;6.25;;;19.30;99.90;;;;;;5094507;28;20469;-73
2021/07/16 06:54:38;;;;;;;6.47;5.72;;;19.40;99.90;;;;;;5094900;28;20019;-73
2021/07/16 06:57:04;;;;;;;7.88;7.18;;;19.70;99.90;;;;;;5076645;28;20024;-73
2021/07/16 06:59:30;;;;;;;5.95;5.35;;;19.70;99.90;;;;;;5094697;28;20016;-74
2021/07/16 07:01:56;;;;;;;7.68;6.45;;;19.40;99.90;;;;;;5094713;28;20089;-74
2021/07/16 07:04:21;;;;;;;8.30;6.40;;;19.10;99.90;;;;;;5094748;28;20070;-73
2021/07/16 07:06:47;;;;;;;7.78;6.35;;;18.90;99.90;;;;;;5094594;28;20400;-75
2021/07/16 07:09:13;;;;;;;6.07;5.47;;;19.20;99.90;;;;;;5094577;28;20028;-73
2021/07/16 07:11:38;;;;;;;7.40;5.53;;;19.10;99.90;;;;;;5094410;28;20062;-73
2021/07/16 07:14:05;;;;;;;6.30;5.80;;;19.10;99.90;;;;;;5076538;28;20033;-74
2021/07/16 07:16:31;;;;;;;6.38;5.88;;;19.30;99.90;;;;;;5094940;28;20024;-73
2021/07/16 07:18:57;;;;;;;7.03;6.43;;;19.20;99.90;;;;;;5095514;28;20103;-74
2021/07/16 07:21:22;;;;;;;6.72;5.82;;;18.70;99.90;;;;;;5097101;28;20036;-73
2021/07/16 07:23:48;;;;;;;6.75;6.05;;;18.70;99.90;;;;;;5094511;28;20031;-73
2021/07/16 07:26:13;;;;;;;8.07;6.03;;;18.70;99.90;;;;;;5076453;28;20393;-73
2021/07/16 07:28:39;;;;;;;7.30;6.05;;;18.60;99.90;;;;;;5085434;28;20020;-72
2021/07/16 07:31:05;;;;;;;6.20;5.68;;;18.60;99.90;;;;;;5106102;28;20024;-73
2021/07/16 07:33:30;;;;;;;7.57;6.47;;;18.50;99.90;;;;;;5104573;28;20146;-73
2021/07/16 07:35:56;;;;;;;6.82;6.30;;;18.40;99.90;;;;;;5101227;28;20017;-73
2021/07/16 07:38:23;;;;;;;5.95;5.28;;;18.50;99.90;;;;;;5098515;28;20054;-73
2021/07/16 07:40:49;;;;;;;6.65;5.35;;;18.90;99.90;;;;;;5094907;28;20031;-73
2021/07/16 07:43:14;;;;;;;6.50;5.50;;;19.30;99.90;;;;;;5095808;28;20452;-73
2021/07/16 07:45:40;;;;;;;5.80;5.32;;;19.70;99.90;;;;;;5095917;28;20016;-73
2021/07/16 07:48:06;;;;;;;6.45;5.85;;;19.90;99.90;;;;;;5059951;28;20032;-72
2021/07/16 07:50:32;;;;;;;5.90;5.45;;;19.70;99.90;;;;;;5095235;28;20016;-73
2021/07/16 07:52:58;;;;;;;6.25;5.75;;;19.60;99.90;;;;;;5094582;28;20425;-73
2021/07/16 07:55:24;;;;;;;7.32;5.60;;;19.10;99.90;;;;;;5094921;28;20027;-74
2021/07/16 07:57:52;;;;;;;5.97;5.47;;;19.10;99.90;;;;;;5060257;28;20209;-73
2021/07/16 08:00:20;;;;;;;8.10;5.55;;;19.30;99.90;;;;;;5095260;28;20285;-73
2021/07/16 08:02:45;;;;;;;5.70;5.30;;;19.40;99.90;;;;;;5097187;28;20021;-73
2021/07/16 08:05:12;;;;;;;5.65;5.18;;;19.50;99.90;;;;;;5097499;28;20047;-74
2021/07/16 08:07:38;;;;;;;5.53;5.00;;;20.00;99.90;;;;;;5098517;28;20024;-73
2021/07/16 08:10:09;;;;;;;5.68;5.25;;;20.00;99.90;;;;;;5098198;28;20526;-73
2021/07/16 08:12:35;;;;;;;;;;;20.00;99.90;;;;;;5101231;28;20051;-73
2021/07/16 08:15:01;;;;;;;6.28;5.68;;;19.90;99.90;;;;;;5098949;28;20288;-73
2021/07/16 08:17:27;;;;;;;6.25;5.50;;;19.50;99.90;;;;;;5098977;28;20031;-73
2021/07/16 08:19:52;;;;;;;7.28;6.68;;;19.40;99.90;;;;;;5095775;28;20020;-73
2021/07/16 08:22:18;;;;;;;6.32;5.82;;;19.60;99.90;;;;;;5093804;28;20032;-72
2021/07/16 08:24:43;;;;;;;6.25;5.75;;;19.60;99.90;;;;;;5093732;28;20101;-73
2021/07/16 08:27:09;;;;;;;6.68;6.18;;;19.90;99.90;;;;;;5095044;28;20473;-73
2021/07/16 08:29:35;;;;;;;6.97;5.78;;;20.30;99.90;;;;;;5095162;28;20052;-73
2021/07/16 08:32:01;;;;;;;5.90;5.40;;;20.00;99.90;;;;;;5094263;28;20428;-73
2021/07/16 08:34:27;;;;;;;5.78;5.20;;;19.90;99.90;;;;;;5097053;28;20020;-73
2021/07/16 08:36:52;;;;;;;6.07;5.55;;;20.10;99.90;;;;;;5094202;28;20031;-74
2021/07/16 08:39:18;;;;;;;5.03;4.53;;;20.10;99.90;;;;;;5077910;28;20394;-74
2021/07/16 08:41:43;;;;;;;5.88;5.38;;;20.20;99.90;;;;;;5095084;28;20145;-72
2021/07/16 08:44:09;;;;;;;5.30;4.88;;;20.00;99.90;;;;;;5093901;28;20111;-72
2021/07/16 08:46:36;;;;;;;5.70;5.20;;;20.00;99.90;;;;;;5092659;28;20026;-73
2021/07/16 08:49:02;;;;;;;5.18;4.50;;;20.30;99.90;;;;;;5074951;28;20020;-73
2021/07/16 08:51:28;;;;;;;4.40;4.07;;;21.00;99.90;;;;;;5074311;28;20053;-73
2021/07/16 08:53:55;;;;;;;6.40;5.60;;;21.30;99.90;;;;;;5092754;28;20051;-73
2021/07/16 08:56:23;;;;;;;4.38;3.97;;;21.20;99.90;;;;;;5092422;28;20053;-73
2021/07/16 08:58:49;;;;;;;4.93;4.35;;;21.10;99.90;;;;;;5092679;28;20020;-74
2021/07/16 09:01:15;;;;;;;5.65;5.20;;;21.20;99.90;;;;;;5092585;28;20492;-72
2021/07/16 09:04:13;;;;;;;5.45;4.95;;;20.70;99.90;;;;;;5092777;28;20384;-72
2021/07/16 09:06:50;;;;;;;4.85;4.55;;;21.00;99.90;;;;;;5047609;28;20035;-73
2021/07/16 09:09:21;;;;;;;4.88;4.47;;;20.80;99.90;;;;;;5092654;28;20512;-74
2021/07/16 09:11:48;;;;;;;;;;;20.50;99.90;;;;;;5094312;28;20150;-73
2021/07/16 09:14:25;;;;;;;5.10;4.70;;;20.60;99.90;;;;;;5074275;28;19904;-73
2021/07/16 09:16:55;;;;;;;5.32;4.82;;;20.40;99.90;;;;;;5092495;28;20050;-73
2021/07/16 09:19:37;;;;;;;4.65;4.25;;;20.30;99.90;;;;;;5092386;28;20035;-73
2021/07/16 09:22:12;;;;;;;6.82;3.78;;;20.20;99.90;;;;;;5092406;28;20051;-73
2021/07/16 09:24:40;;;;;;;4.75;4.43;;;20.40;99.90;;;;;;5092586;28;20114;-73
2021/07/16 09:27:34;;;;;;;4.55;4.25;;;20.50;99.90;;;;;;5092600;28;20052;-75
2021/07/16 09:30:11;;;;;;;4.57;4.13;;;21.30;99.90;;;;;;5092084;28;20473;-73
2021/07/16 09:32:44;;;;;;;4.25;3.95;;;21.10;99.90;;;;;;5092077;28;20027;-73
2021/07/16 09:35:15;;;;;;;4.25;3.92;;;21.00;99.90;;;;;;5092452;28;20104;-73
2021/07/16 09:38:03;;;;;;;4.13;3.83;;;21.20;99.90;;;;;;5092039;28;20019;-75
2021/07/16 09:40:32;;;;;;;3.72;3.47;;;21.80;99.90;;;;;;5079070;28;20092;-73
2021/07/16 09:43:02;;;;;;;6.32;3.10;;;22.00;99.90;;;;;;5091958;28;20028;-74
2021/07/16 09:45:28;;;;;;;3.65;3.35;;;21.80;99.90;;;;;;5091812;28;20545;-74
2021/07/16 09:47:54;;;;;;;3.40;3.20;;;21.50;99.90;;;;;;5091732;28;20036;-74
2021/07/16 09:50:24;;;;;;;5.13;3.00;;;21.70;99.90;;;;;;5092009;28;20021;-74
2021/07/16 09:53:12;;;;;;;9.18;2.75;;;22.10;99.90;;;;;;5114890;22;20185;-76
2021/07/16 09:55:41;;;;;;;2.72;2.53;;;22.80;99.90;;;;;;5076255;28;20031;-75
2021/07/16 09:58:21;;;;;;;2.55;2.30;;;23.20;99.90;;;;;;5077789;28;20342;-76
2021/07/16 10:00:49;;;;;;;2.60;2.20;;;23.50;99.90;;;;;;5095873;28;20084;-76
2021/07/16 10:03:15;;;;;;;4.63;2.20;;;23.20;99.90;;;;;;5074218;28;20107;-76
2021/07/16 10:05:42;;;;;;;2.10;1.90;;;23.40;99.90;;;;;;5075527;28;20056;-75
2021/07/16 10:08:08;;;;;;;2.95;2.17;;;23.00;99.90;;;;;;5057726;28;20400;-76
2021/07/16 10:10:34;;;;;;;3.22;2.20;;;23.00;99.90;;;;;;5075121;28;20033;-74
2021/07/16 10:13:00;;;;;;;4.05;1.92;;;23.30;99.90;;;;;;5057137;28;20017;-75
2021/07/16 10:15:26;;;;;;;1.77;1.67;;;23.80;99.90;;;;;;5057047;28;20464;-75
2021/07/16 10:17:53;;;;;;;2.45;1.50;;;23.80;99.90;;;;;;5075022;28;20017;-75
2021/07/16 10:20:19;;;;;;;1.60;1.50;;;23.60;99.90;;;;;;5074894;28;20031;-76
2021/07/16 10:22:48;;;;;;;2.70;2.50;;;24.10;99.90;;;;;;5075008;28;20055;-76
2021/07/16 10:25:17;;;;;;;4.75;2.15;;;23.50;99.90;;;;;;5076201;28;20028;-75
2021/07/16 10:27:44;;;;;;;1.88;1.77;;;23.30;99.90;;;;;;5082587;28;20036;-75
2021/07/16 10:30:14;;;;;;;1.75;1.65;;;23.50;99.90;;;;;;5080523;28;20115;-76
2021/07/16 10:32:50;;;;;;;2.13;1.95;;;24.00;99.90;;;;;;5075594;28;20091;-77
2021/07/16 10:35:36;;;;;;;1.60;1.50;;;24.50;99.90;;;;;;5075037;28;20047;-76
2021/07/16 10:38:04;;;;;;;1.30;1.17;;;24.60;99.90;;;;;;5074710;28;20091;-76
2021/07/16 10:40:46;;;;;;;1.73;1.40;;;24.10;99.90;;;;;;5074762;28;20420;-76
2021/07/16 10:43:27;;;;;;;1.33;1.20;;;24.20;99.90;;;;;;5074523;28;20059;-76
2021/07/16 10:45:53;;;;;;;;;;;24.00;99.90;;;;;;5075098;28;20078;-75
2021/07/16 10:48:31;;;;;;;1.67;1.58;;;24.00;99.90;;;;;;5074613;28;19930;-75
2021/07/16 10:50:58;;;;;;;1.55;1.45;;;23.90;99.90;;;;;;5074984;28;20016;-74
2021/07/16 10:53:29;;;;;;;1.40;1.30;;;23.80;99.90;;;;;;5074179;28;20146;-76
2021/07/16 10:55:55;;;;;;;4.50;1.08;;;24.20;99.90;;;;;;5072914;28;20028;-75
2021/07/16 10:58:23;;;;;;;1.58;0.90;;;24.20;99.90;;;;;;5072991;28;20028;-75
2021/07/16 11:00:54;;;;;;;1.88;1.38;;;25.00;99.90;;;;;;5074261;28;20400;-74
2021/07/16 11:03:22;;;;;;;2.67;1.15;;;25.10;99.90;;;;;;5074120;28;20035;-76
2021/07/16 11:05:47;;;;;;;1.85;1.17;;;25.40;99.90;;;;;;5074593;28;20071;-75
2021/07/16 11:08:35;;;;;;;1.30;1.20;;;25.80;99.90;;;;;;5072653;28;20570;-76
2021/07/16 11:11:12;;;;;;;1.30;1.20;;;25.20;99.90;;;;;;5072485;28;20477;-76
2021/07/16 11:13:47;;;;;;;1.45;1.35;;;24.90;99.90;;;;;;5056268;28;20032;-75
2021/07/16 11:16:16;;;;;;;1.33;1.10;;;25.40;99.90;;;;;;5073843;28;20024;-75
2021/07/16 11:18:52;;;;;;;2.85;1.35;;;25.40;99.90;;;;;;5072740;28;20024;-77
2021/07/16 11:21:40;;;;;;;4.40;1.10;;;25.30;99.90;;;;;;5056248;28;20031;-76
2021/07/16 11:24:30;;;;;;;1.40;1.10;;;24.60;99.90;;;;;;5072785;28;20024;-76
2021/07/16 11:26:58;;;;;;;0.93;0.90;;;24.80;99.90;;;;;;5072607;28;20124;-75
2021/07/16 11:29:36;;;;;;;1.73;1.08;;;25.00;99.90;;;;;;5073760;28;20033;-76
2021/07/16 11:32:11;;;;;;;1.10;0.90;;;25.00;99.90;;;;;;5073739;28;20547;-75
2021/07/16 11:34:44;;;;;;;1.10;1.00;;;25.00;99.90;;;;;;5073711;28;20025;-76
2021/07/16 11:37:10;;;;;;;1.13;1.02;;;24.90;99.90;;;;;;5073671;28;20475;-76
2021/07/16 11:39:39;;;;;;;1.13;1.05;;;24.90;99.90;;;;;;5073828;28;20025;-76
2021/07/16 11:42:07;;;;;;;1.25;1.00;;;24.70;99.90;;;;;;5056316;28;20028;-74
2021/07/16 11:44:34;;;;;;;3.17;1.10;;;23.80;99.90;;;;;;5055632;28;20493;-76
2021/07/16 11:47:17;;;;;;;1.90;1.10;;;23.80;99.90;;;;;;5074269;28;20025;-74
2021/07/16 11:49:47;;;;;;;1.00;0.93;;;23.80;99.90;;;;;;5073973;28;20020;-75
2021/07/16 11:52:22;;;;;;;2.05;1.05;;;24.00;99.90;;;;;;5072996;28;20020;-75
2021/07/16 11:54:51;;;;;;;0.82;0.82;;;24.70;99.90;;;;;;5073016;28;20034;-75
2021/07/16 11:57:18;;;;;;;1.02;0.90;;;24.70;99.90;;;;;;5054932;28;20035;-75
2021/07/16 11:59:51;;;;;;;1.15;0.90;;;25.00;99.90;;;;;;5054717;28;20115;-76
2021/07/16 12:02:18;;;;;;;0.82;0.82;;;24.60;99.90;;;;;;5054738;28;20212;-76
2021/07/16 12:04:45;;;;;;;0.70;0.70;;;24.70;99.90;;;;;;5072923;28;20029;-76
2021/07/16 12:07:11;;;;;;;0.80;0.80;;;24.50;99.90;;;;;;5073034;28;20023;-76
2021/07/16 12:09:42;;;;;;;0.80;0.80;;;24.70;99.90;;;;;;5063221;28;20047;-75
2021/07/16 12:12:10;;;;;;;1.08;0.98;;;24.50;99.90;;;;;;5094105;28;20120;-74
2021/07/16 12:14:58;;;;;;;0.95;0.95;;;24.00;99.90;;;;;;5056328;28;20024;-76
2021/07/16 12:17:29;;;;;;;1.20;1.10;;;24.30;99.90;;;;;;5073162;28;20420;-76
2021/07/16 12:19:56;;;;;;;3.10;1.10;;;24.60;99.90;;;;;;5073092;28;20092;-76
2021/07/16 12:22:24;;;;;;;1.10;1.00;;;25.00;99.90;;;;;;5072518;28;20028;-76
2021/07/16 12:24:50;;;;;;;1.27;1.15;;;24.80;99.90;;;;;;5055054;28;20020;-76
2021/07/16 12:27:17;;;;;;;1.50;0.98;;;24.90;99.90;;;;;;5054522;28;20025;-76
2021/07/16 12:29:44;;;;;;;1.30;0.93;;;25.10;99.90;;;;;;5072735;28;20078;-75
2021/07/16 12:32:10;;;;;;;1.10;1.00;;;25.00;99.90;;;;;;5072628;28;20021;-76
2021/07/16 12:34:43;;;;;;;2.67;1.00;;;25.40;99.90;;;;;;5072765;28;20039;-75
2021/07/16 12:37:11;;;;;;;1.17;1.00;;;25.20;99.90;;;;;;5072372;28;20432;-75
2021/07/16 12:39:36;;;;;;;1.52;1.20;;;24.90;99.90;;;;;;5072411;28;20021;-76
2021/07/16 12:42:19;;;;;;;1.42;1.20;;;24.60;99.90;;;;;;5054412;28;20458;-76
2021/07/16 12:45:05;;;;;;;1.52;1.10;;;24.50;99.90;;;;;;5072024;28;20501;-76
2021/07/16 12:47:31;;;;;;;1.17;1.08;;;24.20;99.90;;;;;;5072068;28;20362;-76
2021/07/16 12:50:12;;;;;;;2.83;1.10;;;24.10;99.90;;;;;;5072008;28;20024;-75
2021/07/16 12:52:39;;;;;;;2.03;1.13;;;23.80;99.90;;;;;;5071900;28;20490;-75